createdAt,value
2018-12-05T00:00:14.914Z,7.60
2018-12-05T00:02:43.691Z,6.00
2018-12-05T00:05:12.465Z,7.97
2018-12-05T00:07:41.334Z,7.57
2018-12-05T00:10:10.182Z,7.80
2018-12-05T00:12:38.934Z,5.77
2018-12-05T00:15:08.118Z,7.47
2018-12-05T00:17:36.873Z,7.43
2018-12-05T00:20:06.275Z,6.27
2018-12-05T00:22:35.167Z,8.93
2018-12-05T00:25:04.926Z,12.73
2018-12-05T00:27:33.718Z,8.70
2018-12-05T00:30:02.634Z,7.30
2018-12-05T00:32:31.363Z,4.97
2018-12-05T00:35:00.229Z,9.33
2018-12-05T00:37:29.010Z,6.37
2018-12-05T00:39:57.854Z,7.23
2018-12-05T00:42:26.723Z,5.37
2018-12-05T00:44:55.482Z,9.70
2018-12-05T00:47:24.239Z,7.47
2018-12-05T00:49:53.427Z,7.03
2018-12-05T00:52:22.201Z,6.77
2018-12-05T00:54:51.026Z,6.03
2018-12-05T00:57:19.883Z,7.73
2018-12-05T00:59:48.650Z,5.27
2018-12-05T01:02:17.418Z,9.63
2018-12-05T01:04:46.472Z,11.53
2018-12-05T01:07:15.263Z,10.63
2018-12-05T01:09:44.043Z,7.10
2018-12-05T01:12:13.180Z,9.23
2018-12-05T01:14:41.973Z,15.63
2018-12-05T01:17:10.791Z,11.67
2018-12-05T01:19:39.604Z,7.90
2018-12-05T01:22:08.448Z,9.27
2018-12-05T01:24:37.288Z,15.10
2018-12-05T01:27:06.148Z,8.40
2018-12-05T01:29:34.907Z,9.10
2018-12-05T01:32:03.778Z,10.50
2018-12-05T01:34:32.555Z,8.33
2018-12-05T01:37:01.310Z,8.43
2018-12-05T01:39:30.078Z,12.87
2018-12-05T01:41:59.006Z,9.97
2018-12-05T01:44:27.795Z,8.63
2018-12-05T01:46:56.567Z,13.33
2018-12-05T01:49:25.362Z,9.47
2018-12-05T01:51:54.214Z,10.37
2018-12-05T01:54:22.972Z,8.63
2018-12-05T01:56:52.006Z,9.27
2018-12-05T01:59:20.985Z,9.73
2018-12-05T02:01:49.772Z,8.90
2018-12-05T02:04:18.881Z,9.40
2018-12-05T02:06:47.734Z,8.17
2018-12-05T02:09:16.500Z,9.40
2018-12-05T02:11:45.298Z,14.93
2018-12-05T02:14:14.319Z,7.70
2018-12-05T02:16:43.090Z,8.43
2018-12-05T02:19:12.414Z,15.80
2018-12-05T02:21:41.247Z,10.63
2018-12-05T02:24:10.031Z,12.37
2018-12-05T02:26:39.015Z,12.27
2018-12-05T02:29:07.798Z,10.83
2018-12-05T02:31:37.410Z,13.63
2018-12-05T02:34:06.365Z,12.20
2018-12-05T02:36:35.176Z,10.27
2018-12-05T02:39:07.359Z,12.83
2018-12-05T02:41:36.246Z,12.47
2018-12-05T02:44:05.198Z,15.73
2018-12-05T02:46:34.325Z,15.37
2018-12-05T02:49:03.201Z,12.23
2018-12-05T02:51:31.956Z,18.17
2018-12-05T02:54:00.726Z,13.20
2018-12-05T02:56:29.499Z,13.67
2018-12-05T02:58:58.339Z,20.07
2018-12-05T03:01:27.103Z,16.10
2018-12-05T03:03:55.884Z,14.97
2018-12-05T03:06:25.058Z,16.63
2018-12-05T03:08:53.921Z,18.80
2018-12-05T03:11:23.679Z,22.90
2018-12-05T03:13:52.754Z,16.73
2018-12-05T03:16:21.615Z,19.07
2018-12-05T03:18:50.383Z,19.43
2018-12-05T03:21:19.254Z,20.90
2018-12-05T03:23:48.047Z,15.70
2018-12-05T03:26:16.822Z,18.60
2018-12-05T03:28:45.615Z,16.93
2018-12-05T03:31:14.411Z,18.57
2018-12-05T03:33:43.286Z,33.53
2018-12-05T03:36:12.163Z,21.00
2018-12-05T03:38:41.026Z,19.40
2018-12-05T03:41:09.852Z,15.40
2018-12-05T03:43:40.602Z,17.13
2018-12-05T03:46:09.416Z,17.20
2018-12-05T03:48:38.199Z,16.90
2018-12-05T03:51:07.263Z,19.03
2018-12-05T03:53:36.060Z,16.50
2018-12-05T03:56:05.053Z,14.80
2018-12-05T03:58:33.839Z,15.10
2018-12-05T04:01:02.648Z,14.77
2018-12-05T04:03:31.431Z,13.73
2018-12-05T04:06:00.270Z,15.73
2018-12-05T04:08:29.008Z,21.67
2018-12-05T04:10:57.787Z,17.00
2018-12-05T04:13:27.611Z,17.77
2018-12-05T04:15:56.705Z,17.17
2018-12-05T04:18:25.582Z,20.67
2018-12-05T04:20:54.528Z,22.87
2018-12-05T04:23:25.274Z,19.33
2018-12-05T04:25:55.112Z,25.03
2018-12-05T04:28:23.898Z,22.03
2018-12-05T04:30:52.742Z,14.30
2018-12-05T04:33:23.509Z,23.50
2018-12-05T04:35:52.466Z,16.27
2018-12-05T04:38:21.230Z,18.37
2018-12-05T04:40:50.022Z,24.93
2018-12-05T04:43:18.820Z,17.23
2018-12-05T04:45:47.719Z,25.83
2018-12-05T04:48:16.557Z,18.87
2018-12-05T04:50:45.365Z,16.37
2018-12-05T04:53:14.222Z,19.13
2018-12-05T04:55:43.023Z,28.57
2018-12-05T04:58:11.799Z,22.93
2018-12-05T05:00:40.738Z,18.47
2018-12-05T05:03:09.566Z,18.63
2018-12-05T05:05:38.391Z,16.43
2018-12-05T05:08:07.162Z,22.83
2018-12-05T05:10:35.947Z,17.57
2018-12-05T05:13:04.802Z,20.27
2018-12-05T05:15:33.590Z,17.53
2018-12-05T05:18:02.463Z,19.70
2018-12-05T05:20:31.247Z,35.07
2018-12-05T05:23:00.142Z,29.17
2018-12-05T05:25:28.947Z,27.30
2018-12-05T05:27:57.735Z,26.10
2018-12-05T05:30:26.509Z,36.90
2018-12-05T05:32:55.328Z,26.60
2018-12-05T05:35:24.098Z,27.30
2018-12-05T05:40:27.540Z,21.07
2018-12-05T05:43:01.269Z,17.40
2018-12-05T05:48:19.876Z,21.40
2018-12-05T05:50:57.141Z,21.07
2018-12-05T05:53:25.911Z,26.17
2018-12-05T05:55:55.085Z,22.77
2018-12-05T05:58:24.535Z,25.57
2018-12-05T06:00:53.789Z,23.40
2018-12-05T06:03:23.570Z,26.70
2018-12-05T06:05:54.313Z,22.60
2018-12-05T06:08:26.888Z,21.03
2018-12-05T06:10:56.297Z,27.30
2018-12-05T06:13:29.354Z,23.23
2018-12-05T06:15:59.260Z,27.83
2018-12-05T06:18:29.212Z,22.73
2018-12-05T06:20:59.685Z,26.47
2018-12-05T06:23:30.410Z,33.17
2018-12-05T06:26:10.061Z,26.77
2018-12-05T06:28:40.641Z,25.30
2018-12-05T06:31:13.120Z,27.80
2018-12-05T06:33:44.249Z,29.20
2018-12-05T06:36:15.405Z,33.17
2018-12-05T06:41:20.425Z,34.47
2018-12-05T06:43:51.636Z,25.20
2018-12-05T06:46:20.840Z,25.87
2018-12-05T06:48:52.428Z,22.43
2018-12-05T06:51:22.625Z,21.37
2018-12-05T06:56:31.432Z,35.10
2018-12-05T06:59:02.030Z,25.87
2018-12-05T07:06:46.281Z,19.57
2018-12-05T07:09:17.505Z,26.23
2018-12-05T07:11:52.771Z,30.17
2018-12-05T07:14:27.317Z,34.27
2018-12-05T07:17:00.350Z,28.40
2018-12-05T07:19:29.160Z,27.50
2018-12-05T07:21:58.022Z,24.83
2018-12-05T07:24:27.535Z,26.67
2018-12-05T07:26:58.290Z,41.17
2018-12-05T07:34:49.139Z,29.17
2018-12-05T07:42:51.193Z,22.93
2018-12-05T07:45:32.095Z,23.20
2018-12-05T07:48:09.024Z,25.23
2018-12-05T07:50:43.012Z,25.97
2018-12-05T07:55:56.101Z,25.17
2018-12-05T07:58:26.071Z,26.77
2018-12-05T08:00:54.883Z,25.83
2018-12-05T08:03:23.706Z,22.67
2018-12-05T08:05:52.856Z,22.47
2018-12-05T08:08:21.661Z,17.93
2018-12-05T08:10:50.543Z,19.87
2018-12-05T08:13:19.383Z,20.80
2018-12-05T08:15:48.167Z,18.27
2018-12-05T08:18:19.949Z,17.80
2018-12-05T08:20:48.811Z,22.60
2018-12-05T08:23:17.603Z,20.30
2018-12-05T08:25:46.382Z,15.90
2018-12-05T08:28:15.159Z,24.77
2018-12-05T08:30:43.948Z,17.60
2018-12-05T08:33:12.903Z,15.77
2018-12-05T08:35:41.832Z,16.43
2018-12-05T08:38:10.730Z,23.20
2018-12-05T08:40:39.511Z,18.80
2018-12-05T08:43:08.422Z,20.40
2018-12-05T08:45:37.219Z,20.70
2018-12-05T08:48:06.003Z,18.60
2018-12-05T08:50:35.106Z,17.07
2018-12-05T08:53:04.038Z,18.57
2018-12-05T08:55:32.878Z,14.67
2018-12-05T08:58:01.695Z,20.03
2018-12-05T09:00:30.566Z,18.80
2018-12-05T09:02:59.371Z,19.77
2018-12-05T09:05:28.174Z,13.77
2018-12-05T09:07:57.054Z,18.53
2018-12-05T09:10:25.926Z,18.97
2018-12-05T09:12:54.804Z,27.13
2018-12-05T09:15:23.579Z,22.70
2018-12-05T09:17:52.376Z,13.13
2018-12-05T09:20:21.588Z,15.97
2018-12-05T09:22:56.813Z,18.00
2018-12-05T09:28:12.608Z,16.53
2018-12-05T09:33:25.886Z,16.33
2018-12-05T09:38:43.465Z,18.97
2018-12-05T09:41:14.345Z,18.92
2018-12-05T09:44:04.089Z,21.23
2018-12-05T09:46:33.614Z,17.40
2018-12-05T09:49:06.570Z,18.93
2018-12-05T09:51:49.225Z,15.03
2018-12-05T09:54:27.247Z,13.50
2018-12-05T09:59:40.616Z,16.60
2018-12-05T10:02:09.515Z,15.13
2018-12-05T10:04:38.318Z,14.60
2018-12-05T10:07:07.114Z,17.63
2018-12-05T10:09:35.889Z,15.07
2018-12-05T10:12:09.295Z,19.13
2018-12-05T10:17:13.562Z,17.37
2018-12-05T10:19:48.358Z,12.93
2018-12-05T10:22:18.834Z,13.50
2018-12-05T10:24:51.186Z,16.03
2018-12-05T10:27:33.405Z,25.10
2018-12-05T10:30:02.523Z,18.30
2018-12-05T10:32:33.403Z,14.30
2018-12-05T10:35:17.694Z,18.47
2018-12-05T10:37:50.008Z,19.47
2018-12-05T10:40:19.628Z,14.03
2018-12-05T10:42:49.896Z,26.30
2018-12-05T10:45:30.420Z,17.50
2018-12-05T10:48:06.177Z,16.63
2018-12-05T10:53:17.272Z,16.60
2018-12-05T10:55:57.189Z,24.10
2018-12-05T11:01:14.908Z,18.03
2018-12-05T11:03:44.405Z,19.73
2018-12-05T11:06:22.102Z,16.70
2018-12-05T11:10:06.131Z,14.70
2018-12-05T11:13:43.686Z,17.17
2018-12-05T11:16:19.423Z,17.00
2018-12-05T11:20:00.780Z,14.20
2018-12-05T11:22:40.338Z,15.90
2018-12-05T11:25:24.673Z,15.37
2018-12-05T11:27:57.010Z,13.50
2018-12-05T11:30:28.029Z,12.80
2018-12-05T11:32:56.831Z,24.70
2018-12-05T11:35:25.651Z,15.87
2018-12-05T11:37:54.448Z,15.83
2018-12-05T11:40:23.322Z,16.47
2018-12-05T11:42:52.344Z,17.13
2018-12-05T11:45:21.266Z,19.67
2018-12-05T11:47:50.095Z,17.57
2018-12-05T11:50:18.952Z,20.90
2018-12-05T11:52:47.730Z,14.77
2018-12-05T11:55:17.562Z,19.63
2018-12-05T11:57:46.359Z,19.27
2018-12-05T12:00:15.326Z,14.80
2018-12-05T12:02:44.117Z,26.50
2018-12-05T12:05:14.942Z,22.63
2018-12-05T12:07:43.756Z,17.63
2018-12-05T12:10:12.808Z,16.10
2018-12-05T12:12:47.066Z,19.17
2018-12-05T12:15:20.538Z,14.83
2018-12-05T12:17:49.341Z,20.57
2018-12-05T12:20:18.468Z,22.20
2018-12-05T12:22:47.583Z,13.93
2018-12-05T12:25:17.224Z,16.50
2018-12-05T12:30:35.787Z,16.57
2018-12-05T12:33:08.423Z,14.97
2018-12-05T12:35:42.365Z,13.73
2018-12-05T12:41:09.595Z,14.83
2018-12-05T12:43:50.207Z,15.23
2018-12-05T12:46:27.846Z,19.33
2018-12-05T12:49:09.536Z,15.83
2018-12-05T12:51:47.185Z,14.43
2018-12-05T12:54:16.383Z,17.93
2018-12-05T12:56:53.554Z,15.03
2018-12-05T12:59:37.238Z,16.30
2018-12-05T13:02:26.512Z,17.20
2018-12-05T13:07:47.588Z,16.33
2018-12-05T13:10:21.167Z,21.83
2018-12-05T13:12:55.766Z,16.70
2018-12-05T13:15:28.522Z,21.17
2018-12-05T13:20:53.519Z,28.80
2018-12-05T13:23:34.655Z,15.07
2018-12-05T13:26:11.536Z,20.90
2018-12-05T13:28:46.609Z,25.23
2018-12-05T13:37:03.191Z,20.67
2018-12-05T13:39:33.838Z,20.73
2018-12-05T13:42:15.541Z,21.13
2018-12-05T13:47:34.452Z,22.53
2018-12-05T13:50:06.509Z,19.63
2018-12-05T13:52:46.364Z,20.27
2018-12-05T13:55:20.480Z,18.90
2018-12-05T13:57:58.836Z,21.60
2018-12-05T14:03:11.641Z,19.07
2018-12-05T14:05:57.604Z,21.53
2018-12-05T14:08:46.707Z,19.50
2018-12-05T14:11:21.575Z,22.50
2018-12-05T14:13:57.372Z,26.77
2018-12-05T14:16:29.254Z,23.97
2018-12-05T14:18:58.034Z,21.87
2018-12-05T14:21:29.921Z,26.03
2018-12-05T14:24:06.000Z,24.90
2018-12-05T14:26:40.147Z,22.83
2018-12-05T14:29:12.679Z,33.27
2018-12-05T14:31:58.407Z,34.27
2018-12-05T14:34:34.110Z,28.47
2018-12-05T14:37:18.020Z,28.80
2018-12-05T14:39:48.746Z,28.67
2018-12-05T14:45:08.694Z,27.20
2018-12-05T14:47:51.662Z,26.87
2018-12-05T14:53:14.158Z,41.30
2018-12-05T14:55:44.780Z,32.67
2018-12-05T14:58:27.765Z,35.47
2018-12-05T15:00:58.885Z,35.70
2018-12-05T15:03:35.688Z,35.00
2018-12-05T15:06:10.877Z,32.60
2018-12-05T15:08:44.753Z,35.63
2018-12-05T15:11:18.956Z,44.40
2018-12-05T15:14:02.015Z,42.77
2018-12-05T15:16:38.365Z,43.83
2018-12-05T15:21:55.189Z,38.10
2018-12-05T15:24:28.579Z,35.40
2018-12-05T15:27:04.937Z,38.13
2018-12-05T15:29:47.058Z,40.47
2018-12-05T15:32:15.909Z,37.83
2018-12-05T15:35:00.773Z,36.83
2018-12-05T15:37:37.280Z,49.90
2018-12-05T15:42:59.669Z,38.13
2018-12-05T15:45:34.584Z,39.60
2018-12-05T15:50:55.570Z,35.20
2018-12-05T15:53:27.729Z,33.00
2018-12-05T15:56:02.697Z,37.63
2018-12-05T15:58:41.661Z,43.17
2018-12-05T16:01:12.509Z,44.07
2018-12-05T16:03:47.252Z,37.00
2018-12-05T16:06:18.553Z,47.93
2018-12-05T16:08:51.357Z,35.67
2018-12-05T16:11:25.168Z,32.33
2018-12-05T16:13:55.911Z,42.00
2018-12-05T16:16:26.330Z,50.80
2018-12-05T16:18:56.274Z,42.27
2018-12-05T16:21:28.733Z,40.40
2018-12-05T16:23:59.890Z,44.58
2018-12-05T16:26:28.818Z,36.43
2018-12-05T16:29:14.821Z,35.57
2018-12-05T16:31:47.929Z,41.67
2018-12-05T16:34:16.944Z,31.10
2018-12-05T16:36:48.814Z,36.97
2018-12-05T16:39:28.877Z,32.77
2018-12-05T16:41:58.120Z,42.83
2018-12-05T16:44:27.376Z,35.63
2018-12-05T16:47:00.561Z,35.87
2018-12-05T16:49:31.054Z,35.03
2018-12-05T16:52:00.709Z,36.97
2018-12-05T16:54:33.290Z,36.43
2018-12-05T16:57:08.899Z,36.17
2018-12-05T16:59:49.840Z,42.23
2018-12-05T17:05:02.625Z,35.57
2018-12-05T17:13:00.342Z,30.97
2018-12-05T17:15:38.172Z,39.37
2018-12-05T17:20:59.323Z,32.63
2018-12-05T17:23:32.987Z,33.87
2018-12-05T17:26:04.821Z,32.07
2018-12-05T17:28:38.134Z,40.17
2018-12-05T17:31:10.173Z,34.27
2018-12-05T17:33:44.158Z,45.30
2018-12-05T17:36:18.288Z,38.40
2018-12-05T17:38:50.749Z,41.07
2018-12-05T17:41:25.038Z,45.53
2018-12-05T17:43:57.388Z,31.43
2018-12-05T17:46:28.495Z,53.20
2018-12-05T17:49:08.703Z,36.00
2018-12-05T17:54:27.831Z,39.73
2018-12-05T17:57:07.669Z,32.00
2018-12-05T17:59:55.074Z,39.07
2018-12-05T18:05:14.118Z,36.83
2018-12-05T18:07:42.908Z,33.67
2018-12-05T18:10:22.621Z,37.40
2018-12-05T18:13:07.760Z,39.37
2018-12-05T18:15:38.744Z,38.37
2018-12-05T18:18:24.709Z,39.53
2018-12-05T18:23:47.350Z,32.93
2018-12-05T18:26:20.261Z,30.70
2018-12-05T18:28:56.931Z,35.23
2018-12-05T18:31:29.550Z,40.77
2018-12-05T18:34:04.565Z,41.67
2018-12-05T18:36:46.730Z,37.47
2018-12-05T18:39:24.764Z,40.03
2018-12-05T18:41:59.554Z,26.43
2018-12-05T18:44:31.998Z,30.67
2018-12-05T18:47:06.445Z,31.43
2018-12-05T18:49:40.356Z,38.90
2018-12-05T18:52:13.218Z,32.80
2018-12-05T18:54:55.434Z,33.37
2018-12-05T18:57:29.542Z,34.03
2018-12-05T19:00:03.241Z,30.60
2018-12-05T19:02:38.833Z,37.50
2018-12-05T19:05:10.925Z,31.93
2018-12-05T19:07:47.882Z,32.33
2018-12-05T19:10:30.643Z,34.53
2018-12-05T19:13:09.226Z,38.57
2018-12-05T19:15:46.466Z,33.53
2018-12-05T19:18:18.720Z,30.13
2018-12-05T19:20:49.812Z,36.97
2018-12-05T19:23:19.773Z,32.77
2018-12-05T19:28:31.685Z,29.73
2018-12-05T19:31:09.369Z,33.53
2018-12-05T19:33:39.090Z,28.77
2018-12-05T19:36:19.656Z,36.20
2018-12-05T19:38:50.867Z,26.10
2018-12-05T19:44:16.290Z,25.40
2018-12-05T19:46:47.493Z,25.33
2018-12-05T19:49:30.739Z,26.97
2018-12-05T19:52:08.040Z,29.77
2018-12-05T19:54:41.441Z,26.07
2018-12-05T19:57:18.991Z,35.07
2018-12-05T19:59:55.226Z,34.13
2018-12-05T20:02:35.710Z,26.30
2018-12-05T20:05:14.369Z,38.03
2018-12-05T20:10:29.370Z,24.13
2018-12-05T20:13:00.797Z,23.13
2018-12-05T20:15:33.785Z,25.10
2018-12-05T20:18:23.410Z,22.37
2018-12-05T20:23:39.059Z,26.03
2018-12-05T20:26:16.138Z,22.90
2018-12-05T20:28:51.905Z,23.97
2018-12-05T20:34:10.711Z,28.10
2018-12-05T20:36:49.834Z,31.43
2018-12-05T20:39:26.170Z,31.83
2018-12-05T20:46:01.709Z,27.57
2018-12-05T20:48:38.501Z,26.50
2018-12-05T20:51:13.902Z,23.63
2018-12-05T20:53:56.594Z,28.33
2018-12-05T20:56:32.926Z,29.10
2018-12-05T20:59:01.707Z,20.20
2018-12-05T21:01:30.610Z,23.10
2018-12-05T21:04:05.259Z,23.77
2018-12-05T21:06:37.696Z,23.73
2018-12-05T21:09:18.108Z,25.10
2018-12-05T21:11:55.139Z,24.90
2018-12-05T21:14:29.124Z,30.23
2018-12-05T21:17:04.192Z,36.90
2018-12-05T21:19:45.900Z,28.90
2018-12-05T21:22:31.889Z,27.37
2018-12-05T21:25:09.180Z,27.00
2018-12-05T21:31:05.883Z,24.43
2018-12-05T21:36:25.586Z,28.42
2018-12-05T21:38:55.557Z,25.43
2018-12-05T21:44:02.359Z,28.70
2018-12-05T21:52:05.637Z,41.93
2018-12-05T21:58:28.673Z,32.90
2018-12-05T22:01:10.869Z,37.97
2018-12-05T22:03:39.680Z,33.13
2018-12-05T22:08:55.094Z,32.17
2018-12-05T22:11:34.434Z,44.13
2018-12-05T22:16:59.399Z,31.80
2018-12-05T22:19:36.176Z,36.63
2018-12-05T22:22:12.863Z,35.53
2018-12-05T22:24:47.103Z,30.47
2018-12-05T22:27:21.934Z,28.53
2018-12-05T22:29:57.951Z,43.67
2018-12-05T22:32:30.758Z,37.80
2018-12-05T22:35:03.870Z,37.57
2018-12-05T22:37:38.711Z,37.10
2018-12-05T22:40:16.179Z,35.80
2018-12-05T22:45:34.443Z,41.60
2018-12-05T22:48:12.914Z,35.67
2018-12-05T22:50:48.165Z,39.87
2018-12-05T22:56:07.762Z,41.57
2018-12-05T22:58:41.626Z,37.33
2018-12-05T23:01:16.861Z,41.03
2018-12-05T23:03:50.344Z,41.47
2018-12-05T23:06:22.485Z,42.57
2018-12-05T23:08:57.913Z,52.47
2018-12-05T23:11:40.524Z,40.63
2018-12-05T23:19:45.025Z,52.37
2018-12-05T23:22:28.067Z,41.30
2018-12-05T23:27:47.386Z,39.63
2018-12-05T23:30:25.174Z,40.97
2018-12-05T23:33:00.333Z,48.60
2018-12-05T23:35:32.960Z,50.87
2018-12-05T23:38:11.374Z,42.70
2018-12-05T23:43:22.550Z,56.23
2018-12-05T23:46:02.390Z,43.60
2018-12-05T23:48:38.444Z,43.00
2018-12-05T23:51:18.144Z,52.57
2018-12-05T23:53:52.619Z,41.20
2018-12-05T23:56:22.664Z,57.33
2018-12-05T23:58:56.987Z,43.30
